createdAt,value
2022-12-19T00:00:03.970Z,6.22
2022-12-19T00:02:38.815Z,6.30
2022-12-19T00:05:05.571Z,6.55
2022-12-19T00:07:31.890Z,6.78
2022-12-19T00:09:58.242Z,6.50
2022-12-19T00:12:24.540Z,6.63
2022-12-19T00:14:50.877Z,6.38
2022-12-19T00:17:17.234Z,6.40
2022-12-19T00:19:43.625Z,6.70
2022-12-19T00:22:11.419Z,6.40
2022-12-19T00:24:37.814Z,6.60
2022-12-19T00:27:04.190Z,6.43
2022-12-19T00:29:30.576Z,6.75
2022-12-19T00:31:57.820Z,5.68
2022-12-19T00:34:24.293Z,7.18
2022-12-19T00:36:50.652Z,7.18
2022-12-19T00:39:17.389Z,6.80
2022-12-19T00:41:45.475Z,6.45
2022-12-19T00:44:13.061Z,6.70
2022-12-19T00:46:40.377Z,6.18
2022-12-19T00:49:07.239Z,6.30
2022-12-19T00:51:36.052Z,7.28
2022-12-19T00:54:04.180Z,6.40
2022-12-19T00:56:37.298Z,6.45
2022-12-19T00:59:06.308Z,6.60
2022-12-19T01:01:34.593Z,6.97
2022-12-19T01:06:48.169Z,6.53
2022-12-19T01:09:14.689Z,6.78
2022-12-19T01:12:00.467Z,6.20
2022-12-19T01:14:26.839Z,6.57
2022-12-19T01:16:53.157Z,6.80
2022-12-19T01:19:19.914Z,7.07
2022-12-19T01:21:46.345Z,7.10
2022-12-19T01:24:13.654Z,6.97
2022-12-19T01:26:41.585Z,6.60
2022-12-19T01:29:07.968Z,6.53
2022-12-19T01:31:34.389Z,6.00
2022-12-19T01:34:02.796Z,6.93
2022-12-19T01:36:29.266Z,6.60
2022-12-19T01:38:56.568Z,6.40
2022-12-19T01:41:22.927Z,5.93
2022-12-19T01:44:03.112Z,6.50
2022-12-19T01:46:35.256Z,6.65
2022-12-19T01:49:02.371Z,6.00
2022-12-19T01:51:36.103Z,6.93
2022-12-19T01:54:04.588Z,6.13
2022-12-19T01:56:35.946Z,6.65
2022-12-19T01:59:06.526Z,6.53
2022-12-19T02:01:40.016Z,5.47
2022-12-19T02:04:18.158Z,6.32
2022-12-19T02:06:45.979Z,6.20
2022-12-19T02:09:13.162Z,6.60
2022-12-19T02:11:39.853Z,6.28
2022-12-19T02:14:06.749Z,6.28
2022-12-19T02:16:54.860Z,5.75
2022-12-19T02:19:30.497Z,6.05
2022-12-19T02:22:03.220Z,5.70
2022-12-19T02:24:33.502Z,5.63
2022-12-19T02:27:11.537Z,6.03
2022-12-19T02:29:37.899Z,5.97
2022-12-19T02:34:34.320Z,6.22
2022-12-19T02:37:06.116Z,6.28
2022-12-19T02:39:51.598Z,6.45
2022-12-19T02:42:22.536Z,6.05
2022-12-19T02:44:50.764Z,5.88
2022-12-19T02:47:18.879Z,6.25
2022-12-19T02:49:45.916Z,5.65
2022-12-19T02:52:32.704Z,6.00
2022-12-19T02:55:01.539Z,5.90
2022-12-19T02:57:28.240Z,5.90
2022-12-19T03:00:00.809Z,6.15
2022-12-19T03:02:43.143Z,5.95
2022-12-19T03:05:15.414Z,6.25
2022-12-19T03:07:49.392Z,5.82
2022-12-19T03:10:35.991Z,6.03
2022-12-19T03:15:28.694Z,5.78
2022-12-19T03:17:59.605Z,6.18
2022-12-19T03:20:29.105Z,6.32
2022-12-19T03:22:55.464Z,6.40
2022-12-19T03:25:22.423Z,5.82
2022-12-19T03:27:50.086Z,6.50
2022-12-19T03:32:44.349Z,5.97
2022-12-19T03:35:13.634Z,5.53
2022-12-19T03:37:41.246Z,5.63
2022-12-19T03:40:10.093Z,5.65
2022-12-19T03:42:56.900Z,5.68
2022-12-19T03:45:30.666Z,5.60
2022-12-19T03:50:24.891Z,5.28
2022-12-19T03:53:17.695Z,5.97
2022-12-19T03:55:47.385Z,5.82
2022-12-19T03:58:16.870Z,5.20
2022-12-19T04:00:47.283Z,4.88
2022-12-19T04:03:15.595Z,5.47
2022-12-19T04:05:43.324Z,5.70
2022-12-19T04:08:10.835Z,5.40
2022-12-19T04:10:43.794Z,6.15
2022-12-19T04:13:12.477Z,5.80
2022-12-19T04:15:38.851Z,5.65
2022-12-19T04:18:06.986Z,4.78
2022-12-19T04:20:36.935Z,5.40
2022-12-19T04:23:13.646Z,5.40
2022-12-19T04:25:42.765Z,4.70
2022-12-19T04:28:14.974Z,5.78
2022-12-19T04:30:42.827Z,5.55
2022-12-19T04:33:09.297Z,4.90
2022-12-19T04:35:36.351Z,5.20
2022-12-19T04:38:02.878Z,5.20
2022-12-19T04:40:29.344Z,5.10
2022-12-19T04:42:55.660Z,5.45
2022-12-19T04:45:22.043Z,5.50
2022-12-19T04:47:48.439Z,5.00
2022-12-19T04:50:14.810Z,4.63
2022-12-19T04:52:41.196Z,4.93
2022-12-19T04:55:07.847Z,4.32
2022-12-19T04:57:34.280Z,5.00
2022-12-19T05:00:00.728Z,4.47
2022-12-19T05:02:27.617Z,4.85
2022-12-19T05:04:54.226Z,4.63
2022-12-19T05:07:20.659Z,4.80
2022-12-19T05:09:47.053Z,4.38
2022-12-19T05:12:13.480Z,4.60
2022-12-19T05:14:40.595Z,4.40
2022-12-19T05:17:06.893Z,4.38
2022-12-19T05:19:33.206Z,4.38
2022-12-19T05:21:59.623Z,4.72
2022-12-19T05:24:26.354Z,4.38
2022-12-19T05:26:52.767Z,4.13
2022-12-19T05:29:19.193Z,4.70
2022-12-19T05:31:45.632Z,4.00
2022-12-19T05:34:11.992Z,4.07
2022-12-19T05:36:38.634Z,4.47
2022-12-19T05:39:04.977Z,4.22
2022-12-19T05:41:31.319Z,4.07
2022-12-19T05:43:57.731Z,3.80
2022-12-19T05:46:25.100Z,3.90
2022-12-19T05:48:51.665Z,3.78
2022-12-19T05:51:18.566Z,3.88
2022-12-19T05:53:44.963Z,3.83
2022-12-19T05:56:12.763Z,3.92
2022-12-19T05:58:39.810Z,3.80
2022-12-19T06:01:08.246Z,3.80
2022-12-19T06:03:34.889Z,4.30
2022-12-19T06:06:05.552Z,3.80
2022-12-19T06:08:32.310Z,3.42
2022-12-19T06:11:00.182Z,3.50
2022-12-19T06:13:27.379Z,3.53
2022-12-19T06:16:00.963Z,4.00
2022-12-19T06:18:28.925Z,3.33
2022-12-19T06:21:05.851Z,4.00
2022-12-19T06:23:33.495Z,3.55
2022-12-19T06:28:26.747Z,3.53
2022-12-19T06:30:55.595Z,3.50
2022-12-19T06:33:22.092Z,3.40
2022-12-19T06:35:48.442Z,3.38
2022-12-19T06:38:14.806Z,3.03
2022-12-19T06:41:01.773Z,3.40
2022-12-19T06:43:28.129Z,2.85
2022-12-19T06:45:56.778Z,2.97
2022-12-19T06:48:23.174Z,2.70
2022-12-19T06:50:49.559Z,2.75
2022-12-19T06:53:15.884Z,2.53
2022-12-19T06:55:42.408Z,2.78
2022-12-19T06:58:08.838Z,2.90
2022-12-19T07:00:35.725Z,2.90
2022-12-19T07:03:03.574Z,2.92
2022-12-19T07:05:30.025Z,3.45
2022-12-19T07:07:56.452Z,2.58
2022-12-19T07:10:22.893Z,2.83
2022-12-19T07:12:49.343Z,3.08
2022-12-19T07:15:15.948Z,2.50
2022-12-19T07:17:42.610Z,2.45
2022-12-19T07:20:09.348Z,2.58
2022-12-19T07:22:36.354Z,2.63
2022-12-19T07:25:03.490Z,2.70
2022-12-19T07:27:35.413Z,2.58
2022-12-19T07:30:02.699Z,3.00
2022-12-19T07:32:29.202Z,3.00
2022-12-19T07:34:55.620Z,2.50
2022-12-19T07:37:21.950Z,3.10
2022-12-19T07:39:48.691Z,2.80
2022-12-19T07:42:15.018Z,2.50
2022-12-19T07:44:41.396Z,2.95
2022-12-19T07:47:07.898Z,2.92
2022-12-19T07:49:34.306Z,3.33
2022-12-19T07:52:00.687Z,2.92
2022-12-19T07:54:27.068Z,3.00
2022-12-19T07:56:53.575Z,2.92
2022-12-19T07:59:22.243Z,2.78
2022-12-19T08:01:52.220Z,2.67
2022-12-19T08:04:18.698Z,2.60
2022-12-19T08:06:46.359Z,2.70
2022-12-19T08:11:39.173Z,2.60
2022-12-19T08:14:05.639Z,2.50
2022-12-19T08:16:37.388Z,2.55
2022-12-19T08:19:15.911Z,2.40
2022-12-19T08:21:42.239Z,2.45
2022-12-19T08:24:08.595Z,2.30
2022-12-19T08:26:40.562Z,2.33
2022-12-19T08:29:09.611Z,2.35
2022-12-19T08:31:35.987Z,2.40
2022-12-19T08:34:02.320Z,2.22
2022-12-19T08:36:29.006Z,2.25
2022-12-19T08:38:55.412Z,2.30
2022-12-19T08:41:23.230Z,2.40
2022-12-19T08:43:50.639Z,2.30
2022-12-19T08:46:17.845Z,2.30
2022-12-19T08:48:44.429Z,2.33
2022-12-19T08:51:11.790Z,2.25
2022-12-19T08:53:39.069Z,2.20
2022-12-19T08:56:11.240Z,2.25
2022-12-19T08:58:37.586Z,2.03
2022-12-19T09:01:06.029Z,2.00
2022-12-19T09:03:52.024Z,1.90
2022-12-19T09:06:19.730Z,2.00
2022-12-19T09:08:46.874Z,2.10
2022-12-19T09:11:17.416Z,2.17
2022-12-19T09:13:44.705Z,2.10
2022-12-19T09:16:12.626Z,2.13
2022-12-19T09:18:42.632Z,2.05
2022-12-19T09:21:11.618Z,2.00
2022-12-19T09:23:38.030Z,2.17
2022-12-19T09:26:05.868Z,2.00
2022-12-19T09:28:32.237Z,1.95
2022-12-19T09:30:59.921Z,2.00
2022-12-19T09:33:26.915Z,1.80
2022-12-19T09:35:54.429Z,2.05
2022-12-19T09:38:23.892Z,2.30
2022-12-19T09:41:09.068Z,2.00
2022-12-19T09:44:01.312Z,1.90
2022-12-19T09:46:28.677Z,2.10
2022-12-19T09:48:55.732Z,1.70
2022-12-19T09:51:30.956Z,1.77
2022-12-19T09:54:00.242Z,2.00
2022-12-19T09:56:28.432Z,2.00
2022-12-19T09:59:00.795Z,1.80
2022-12-19T10:01:33.902Z,1.90
2022-12-19T10:04:03.479Z,1.95
2022-12-19T10:07:11.418Z,1.60
2022-12-19T10:11:02.403Z,1.80
2022-12-19T10:12:45.484Z,1.65
2022-12-19T10:15:30.804Z,1.90
2022-12-19T10:17:57.169Z,1.80
2022-12-19T10:20:32.535Z,1.80
2022-12-19T10:23:25.988Z,1.73
2022-12-19T10:25:55.576Z,1.70
2022-12-19T10:28:40.582Z,1.80
2022-12-19T10:31:21.912Z,1.60
2022-12-19T10:33:54.762Z,1.60
2022-12-19T10:36:36.266Z,1.90
2022-12-19T10:39:26.971Z,1.70
2022-12-19T10:41:55.767Z,1.65
2022-12-19T10:44:22.982Z,1.80
2022-12-19T10:46:50.607Z,1.58
2022-12-19T10:49:18.259Z,1.63
2022-12-19T10:54:10.969Z,1.65
2022-12-19T10:56:38.117Z,1.80
2022-12-19T10:59:16.067Z,1.65
2022-12-19T11:01:42.690Z,1.88
2022-12-19T11:04:26.838Z,2.00
2022-12-19T11:07:02.495Z,1.70
2022-12-19T11:09:29.244Z,1.80
2022-12-19T11:16:38.219Z,1.80
2022-12-19T11:19:18.521Z,1.80
2022-12-19T11:29:17.225Z,2.00
2022-12-19T11:29:19.747Z,1.77
2022-12-19T11:29:31.092Z,1.80
2022-12-19T11:30:34.336Z,2.10
2022-12-19T11:32:40.982Z,2.60
2022-12-19T11:35:25.369Z,2.20
2022-12-19T11:38:05.885Z,1.98
2022-12-19T11:40:49.427Z,2.28
2022-12-19T11:46:22.157Z,2.22
2022-12-19T11:49:01.404Z,2.30
2022-12-19T11:51:39.933Z,1.85
2022-12-19T11:54:12.012Z,2.15
2022-12-19T11:56:38.380Z,2.38
2022-12-19T11:59:12.272Z,2.20
2022-12-19T12:01:43.798Z,1.90
2022-12-19T12:04:34.095Z,1.80
2022-12-19T12:07:03.080Z,1.83
2022-12-19T12:12:38.506Z,1.90
2022-12-19T12:20:40.086Z,1.83
2022-12-19T12:29:48.325Z,1.90
2022-12-19T12:31:15.619Z,2.10
2022-12-19T12:31:18.534Z,1.75
2022-12-19T12:31:42.782Z,1.75
2022-12-19T12:31:51.726Z,1.70
2022-12-19T12:31:58.475Z,1.98
2022-12-19T12:35:33.437Z,1.60
2022-12-19T12:38:53.858Z,1.70
2022-12-19T12:42:02.320Z,2.00
2022-12-19T12:44:33.362Z,2.08
2022-12-19T12:47:20.495Z,1.60
2022-12-19T12:49:48.924Z,1.70
2022-12-19T12:52:19.152Z,1.83
2022-12-19T12:54:47.690Z,1.60
2022-12-19T12:57:18.175Z,1.90
2022-12-19T12:59:45.495Z,2.10
2022-12-19T13:02:22.494Z,1.80
2022-12-19T13:04:59.799Z,1.90
2022-12-19T13:07:26.207Z,1.98
2022-12-19T13:09:54.862Z,1.70
2022-12-19T13:12:42.901Z,2.10
2022-12-19T13:15:27.432Z,1.95
2022-12-19T13:17:53.766Z,1.65
2022-12-19T13:20:29.192Z,1.98
2022-12-19T13:22:58.435Z,1.75
2022-12-19T13:25:30.625Z,2.40
2022-12-19T13:28:03.705Z,1.70
2022-12-19T13:30:31.168Z,1.90
2022-12-19T13:35:52.876Z,2.00
2022-12-19T13:40:00.637Z,1.92
2022-12-19T13:41:25.628Z,1.70
2022-12-19T13:43:57.612Z,1.90
2022-12-19T13:46:32.103Z,1.95
2022-12-19T13:49:25.425Z,1.92
2022-12-19T13:51:57.294Z,1.63
2022-12-19T13:54:44.152Z,1.95
2022-12-19T13:57:27.286Z,1.70
2022-12-19T14:00:00.272Z,1.77
2022-12-19T14:02:32.532Z,1.67
2022-12-19T14:06:14.735Z,1.80
2022-12-19T14:08:20.926Z,1.70
2022-12-19T14:11:42.760Z,1.70
2022-12-19T14:14:08.464Z,1.90
2022-12-19T14:16:44.094Z,1.63
2022-12-19T14:19:18.718Z,1.70
2022-12-19T14:22:11.009Z,1.70
2022-12-19T14:24:31.393Z,1.90
2022-12-19T14:28:19.827Z,1.90
2022-12-19T14:30:28.719Z,1.60
2022-12-19T14:33:45.282Z,1.73
2022-12-19T14:36:06.614Z,1.80
2022-12-19T14:39:25.485Z,1.60
2022-12-19T14:41:08.542Z,1.63
2022-12-19T14:43:59.578Z,1.80
2022-12-19T14:51:25.211Z,1.50
2022-12-19T14:54:07.009Z,1.67
2022-12-19T14:54:48.352Z,1.58
2022-12-19T14:56:00.471Z,1.63
2022-12-19T14:58:54.359Z,1.65
2022-12-19T15:01:10.908Z,1.60
2022-12-19T15:03:43.987Z,1.60
2022-12-19T15:07:07.985Z,1.58
2022-12-19T15:11:06.812Z,1.70
2022-12-19T15:14:49.063Z,1.63
2022-12-19T15:15:21.268Z,1.50
2022-12-19T15:17:49.126Z,1.70
2022-12-19T15:20:16.333Z,1.70
2022-12-19T15:22:43.100Z,1.80
2022-12-19T15:25:52.776Z,1.67
2022-12-19T15:28:10.191Z,1.60
2022-12-19T15:30:38.128Z,1.60
2022-12-19T15:33:08.433Z,1.50
2022-12-19T15:35:34.888Z,1.70
2022-12-19T15:38:01.205Z,1.98
2022-12-19T15:40:27.571Z,1.52
2022-12-19T15:42:56.493Z,1.67
2022-12-19T15:45:23.067Z,1.75
2022-12-19T15:47:49.412Z,1.70
2022-12-19T15:50:18.640Z,1.52
2022-12-19T15:52:45.003Z,1.45
2022-12-19T15:55:15.597Z,1.60
2022-12-19T15:57:43.613Z,1.80
2022-12-19T16:00:15.919Z,1.70
2022-12-19T16:03:21.336Z,1.60
2022-12-19T16:05:29.326Z,1.60
2022-12-19T16:07:58.688Z,1.50
2022-12-19T16:10:25.285Z,1.50
2022-12-19T16:12:53.057Z,1.50
2022-12-19T16:15:23.507Z,1.70
2022-12-19T16:17:49.853Z,1.80
2022-12-19T16:20:22.026Z,1.60
2022-12-19T16:22:48.509Z,1.55
2022-12-19T16:25:15.033Z,1.50
2022-12-19T16:27:42.282Z,1.50
2022-12-19T16:30:19.403Z,1.58
2022-12-19T16:32:45.839Z,1.60
2022-12-19T16:35:24.034Z,1.80
2022-12-19T16:38:00.827Z,1.80
2022-12-19T16:40:27.212Z,1.65
2022-12-19T16:43:04.688Z,1.50
2022-12-19T16:45:31.543Z,1.90
2022-12-19T16:47:57.968Z,1.90
2022-12-19T16:50:29.684Z,1.70
2022-12-19T16:52:56.487Z,1.95
2022-12-19T16:55:23.844Z,2.40
2022-12-19T16:57:52.104Z,1.70
2022-12-19T17:00:19.616Z,2.17
2022-12-19T17:02:51.428Z,1.90
2022-12-19T17:05:22.923Z,1.60
2022-12-19T17:07:49.764Z,1.83
2022-12-19T17:10:22.671Z,2.25
2022-12-19T17:12:52.132Z,1.77
2022-12-19T17:15:26.860Z,1.90
2022-12-19T17:17:54.209Z,2.10
2022-12-19T17:20:21.657Z,2.10
2022-12-19T17:25:24.404Z,1.70
2022-12-19T17:27:51.516Z,1.70
2022-12-19T17:30:17.902Z,1.88
2022-12-19T17:32:45.678Z,2.00
2022-12-19T17:35:25.702Z,1.92
2022-12-19T17:37:55.764Z,1.70
2022-12-19T17:40:23.950Z,1.92
2022-12-19T17:42:50.499Z,1.88
2022-12-19T17:45:17.183Z,2.20
2022-12-19T17:47:44.547Z,1.95
2022-12-19T17:50:18.891Z,1.80
2022-12-19T17:52:45.356Z,2.30
2022-12-19T17:55:19.432Z,3.55
2022-12-19T17:57:45.915Z,3.92
2022-12-19T18:00:12.859Z,3.78
2022-12-19T18:02:39.587Z,3.42
2022-12-19T18:05:06.457Z,3.35
2022-12-19T18:07:32.979Z,3.55
2022-12-19T18:09:59.410Z,3.45
2022-12-19T18:12:25.782Z,3.40
2022-12-19T18:14:52.149Z,3.20
2022-12-19T18:17:22.553Z,2.90
2022-12-19T18:19:48.917Z,2.70
2022-12-19T18:22:15.333Z,2.80
2022-12-19T18:24:41.764Z,2.70
2022-12-19T18:27:08.136Z,3.13
2022-12-19T18:29:34.777Z,2.55
2022-12-19T18:32:01.250Z,2.80
2022-12-19T18:34:30.272Z,2.50
2022-12-19T18:36:56.802Z,2.72
2022-12-19T18:39:24.674Z,2.60
2022-12-19T18:41:51.633Z,2.67
2022-12-19T18:44:18.307Z,2.20
2022-12-19T18:46:45.145Z,2.50
2022-12-19T18:49:14.887Z,2.47
2022-12-19T18:51:41.370Z,2.50
2022-12-19T18:54:15.022Z,2.50
2022-12-19T18:56:41.534Z,2.22
2022-12-19T18:59:07.902Z,2.10
2022-12-19T19:01:34.666Z,2.00
2022-12-19T19:04:01.139Z,2.33
2022-12-19T19:06:29.420Z,2.17
2022-12-19T19:08:58.369Z,1.90
2022-12-19T19:11:42.652Z,2.20
2022-12-19T19:14:09.230Z,2.10
2022-12-19T19:16:35.933Z,1.75
2022-12-19T19:19:04.637Z,2.15
2022-12-19T19:21:33.372Z,2.05
2022-12-19T19:23:59.701Z,1.80
2022-12-19T19:26:26.081Z,1.85
2022-12-19T19:28:52.949Z,2.00
2022-12-19T19:31:20.995Z,1.70
2022-12-19T19:33:50.363Z,2.00
2022-12-19T19:36:18.857Z,1.95
2022-12-19T19:38:47.441Z,1.85
2022-12-19T19:41:13.856Z,2.10
2022-12-19T19:43:40.287Z,2.00
2022-12-19T19:46:06.693Z,1.80
2022-12-19T19:48:33.053Z,2.00
2022-12-19T19:50:59.463Z,1.85
2022-12-19T19:53:25.847Z,1.60
2022-12-19T19:55:56.332Z,1.83
2022-12-19T19:58:22.788Z,1.80
2022-12-19T20:00:50.189Z,1.80
2022-12-19T20:05:48.827Z,1.90
2022-12-19T20:08:15.196Z,1.70
2022-12-19T20:10:41.571Z,1.75
2022-12-19T20:13:07.924Z,1.85
2022-12-19T20:15:34.687Z,1.60
2022-12-19T20:18:01.206Z,1.80
2022-12-19T20:20:27.601Z,1.90
2022-12-19T20:22:53.957Z,2.03
2022-12-19T20:25:20.319Z,1.77
2022-12-19T20:27:46.763Z,1.90
2022-12-19T20:30:13.418Z,2.13
2022-12-19T20:32:39.745Z,1.88
2022-12-19T20:35:12.417Z,1.90
2022-12-19T20:37:40.818Z,2.00
2022-12-19T20:40:07.783Z,1.88
2022-12-19T20:42:34.136Z,2.00
2022-12-19T20:45:00.527Z,2.05
2022-12-19T20:47:27.020Z,1.98
2022-12-19T20:49:53.416Z,1.95
2022-12-19T20:52:19.780Z,2.03
2022-12-19T20:54:46.124Z,1.92
2022-12-19T20:57:12.528Z,1.85
2022-12-19T20:59:38.880Z,1.90
2022-12-19T21:02:05.507Z,2.20
2022-12-19T21:04:32.284Z,1.90
2022-12-19T21:06:58.837Z,1.70
2022-12-19T21:09:25.194Z,1.80
2022-12-19T21:11:51.568Z,1.95
2022-12-19T21:14:17.948Z,2.00
2022-12-19T21:16:44.492Z,1.75
2022-12-19T21:19:10.905Z,1.80
2022-12-19T21:21:37.295Z,1.80
2022-12-19T21:24:03.727Z,1.90
2022-12-19T21:26:30.520Z,1.90
2022-12-19T21:28:58.036Z,1.80
2022-12-19T21:31:25.877Z,1.77
2022-12-19T21:33:56.335Z,1.88
2022-12-19T21:36:23.559Z,1.70
2022-12-19T21:38:51.356Z,1.80
2022-12-19T21:41:21.274Z,1.77
2022-12-19T21:43:53.405Z,1.70
2022-12-19T21:46:21.120Z,1.90
2022-12-19T21:48:48.535Z,2.00
2022-12-19T21:53:41.503Z,1.65
2022-12-19T21:56:13.831Z,1.80
2022-12-19T21:58:40.194Z,1.65
2022-12-19T22:01:11.079Z,1.80
2022-12-19T22:03:38.359Z,1.77
2022-12-19T22:06:05.265Z,1.77
2022-12-19T22:08:32.064Z,1.77
2022-12-19T22:10:58.405Z,1.80
2022-12-19T22:13:24.735Z,1.70
2022-12-19T22:18:18.446Z,1.65
2022-12-19T22:20:45.309Z,1.60
2022-12-19T22:23:13.563Z,1.50
2022-12-19T22:25:40.385Z,1.60
2022-12-19T22:28:07.328Z,1.50
2022-12-19T22:30:34.904Z,1.70
2022-12-19T22:33:01.661Z,1.50
2022-12-19T22:35:28.023Z,1.45
2022-12-19T22:37:54.756Z,1.50
2022-12-19T22:40:21.128Z,1.60
2022-12-19T22:42:47.461Z,1.63
2022-12-19T22:45:13.923Z,1.50
2022-12-19T22:47:41.166Z,1.60
2022-12-19T22:52:33.773Z,1.40
2022-12-19T22:55:00.120Z,1.50
2022-12-19T22:57:26.492Z,1.50
2022-12-19T22:59:52.906Z,1.52
2022-12-19T23:02:19.380Z,1.50
2022-12-19T23:04:45.868Z,1.35
2022-12-19T23:07:12.212Z,1.35
2022-12-19T23:09:38.530Z,1.40
2022-12-19T23:12:04.982Z,1.38
2022-12-19T23:14:31.305Z,1.40
2022-12-19T23:16:57.722Z,1.45
2022-12-19T23:19:24.375Z,1.50
2022-12-19T23:21:50.728Z,1.52
2022-12-19T23:24:17.065Z,1.45
2022-12-19T23:26:43.696Z,1.45
2022-12-19T23:29:11.922Z,1.70
2022-12-19T23:31:42.274Z,1.25
2022-12-19T23:34:09.051Z,1.60
2022-12-19T23:39:21.730Z,1.40
2022-12-19T23:41:48.119Z,1.35
2022-12-19T23:44:15.269Z,1.50
2022-12-19T23:46:41.595Z,1.40
2022-12-19T23:49:08.057Z,1.70
2022-12-19T23:51:34.433Z,1.60
2022-12-19T23:54:00.784Z,1.60
2022-12-19T23:56:28.801Z,1.35
2022-12-19T23:58:55.407Z,1.52
